HXA3366 ZBCF-ZBHH
Flight info
| Callsign | HXA3366 |
|---|---|
| Flight time | 1h 10m |
| Altitude | 25600 |
| Route | KAKAT W86 TMR |
| Aircraft | CRJ9/M-SDE3EGILRW/L |
Departure
| Time | 2026-05-06 03:42 |
|---|---|
| Airport | Chifeng Yulong Airport (ZBCF) |
Arrival
| Time | 2026-05-06 04:53 |
|---|---|
| Airport | Hohhot Baita International Airport (ZBHH) |
| Time | Latitude | Longitude | Altitude | Speed | Heading |
|---|---|---|---|---|---|
| 2026-05-06 02:54 | 42.15177 | 118.83227 | 2045 ft | 0 kts | 292° |
| 2026-05-06 03:24 | 42.15176 | 118.83230 | 2049 ft | 1 kts | 292° |
| 2026-05-06 03:24 | 42.15170 | 118.83252 | 2048 ft | 3 kts | 287° |
| 2026-05-06 03:24 | 42.15165 | 118.83278 | 2046 ft | 3 kts | 280° |
| 2026-05-06 03:25 | 42.15164 | 118.83287 | 2045 ft | 0 kts | 278° |
| 2026-05-06 03:31 | 42.15164 | 118.83290 | 2045 ft | 1 kts | 276° |
| 2026-05-06 03:31 | 42.15165 | 118.83300 | 2046 ft | 1 kts | 228° |
| 2026-05-06 03:31 | 42.15172 | 118.83305 | 2051 ft | 1 kts | 203° |
| 2026-05-06 03:32 | 42.15176 | 118.83308 | 2050 ft | 0 kts | 201° |
| 2026-05-06 03:33 | 42.15174 | 118.83306 | 2051 ft | 1 kts | 206° |
| 2026-05-06 03:33 | 42.15169 | 118.83302 | 2045 ft | 1 kts | 207° |
| 2026-05-06 03:34 | 42.15154 | 118.83293 | 2048 ft | 2 kts | 204° |
| 2026-05-06 03:34 | 42.15151 | 118.83291 | 2047 ft | 0 kts | 204° |
| 2026-05-06 03:35 | 42.15146 | 118.83288 | 2046 ft | 1 kts | 204° |
| 2026-05-06 03:35 | 42.15144 | 118.83287 | 2045 ft | 0 kts | 204° |
| 2026-05-06 03:36 | 42.15143 | 118.83287 | 2045 ft | 0 kts | 204° |
| 2026-05-06 03:36 | 42.15138 | 118.83283 | 2047 ft | 0 kts | 204° |
| 2026-05-06 03:36 | 42.15116 | 118.83271 | 2046 ft | 6 kts | 201° |
| 2026-05-06 03:36 | 42.15060 | 118.83242 | 2045 ft | 9 kts | 189° |
| 2026-05-06 03:37 | 42.15025 | 118.83268 | 2048 ft | 0 kts | 123° |
| 2026-05-06 03:37 | 42.15013 | 118.83297 | 2049 ft | 4 kts | 114° |
| 2026-05-06 03:37 | 42.15009 | 118.83310 | 2048 ft | 0 kts | 111° |
| 2026-05-06 03:38 | 42.15005 | 118.83324 | 2046 ft | 7 kts | 111° |
| 2026-05-06 03:38 | 42.14990 | 118.83373 | 2046 ft | 4 kts | 112° |
| 2026-05-06 03:38 | 42.14978 | 118.83411 | 2046 ft | 4 kts | 112° |
| 2026-05-06 03:38 | 42.14965 | 118.83455 | 2047 ft | 7 kts | 105° |
| 2026-05-06 03:39 | 42.14970 | 118.83510 | 2047 ft | 5 kts | 60° |
| 2026-05-06 03:39 | 42.14998 | 118.83544 | 2049 ft | 5 kts | 27° |
| 2026-05-06 03:39 | 42.15008 | 118.83551 | 2049 ft | 0 kts | 22° |
| 2026-05-06 03:41 | 42.15106 | 118.83604 | 2047 ft | 45 kts | 22° |
| 2026-05-06 03:42 | 42.15624 | 118.83895 | 2049 ft | 114 kts | 22° |
| 2026-05-06 03:42 | 42.16536 | 118.84403 | 2045 ft | 167 kts | 22° |
| 2026-05-06 03:42 | 42.17646 | 118.85036 | 2547 ft | 176 kts | 20° |
| 2026-05-06 03:42 | 42.18811 | 118.85701 | 3142 ft | 186 kts | 19° |
| 2026-05-06 03:43 | 42.20029 | 118.86370 | 3750 ft | 196 kts | 11° |
| 2026-05-06 03:43 | 42.21415 | 118.86170 | 4079 ft | 212 kts | 324° |
| 2026-05-06 03:43 | 42.22298 | 118.84638 | 4798 ft | 216 kts | 282° |
| 2026-05-06 03:43 | 42.22143 | 118.82663 | 5565 ft | 219 kts | 240° |
| 2026-05-06 03:44 | 42.21206 | 118.81012 | 6350 ft | 227 kts | 231° |
| 2026-05-06 03:44 | 42.20255 | 118.79289 | 7046 ft | 236 kts | 239° |
| 2026-05-06 03:44 | 42.19499 | 118.77321 | 7893 ft | 237 kts | 249° |
| 2026-05-06 03:44 | 42.19042 | 118.75175 | 8699 ft | 240 kts | 261° |
| 2026-05-06 03:45 | 42.18907 | 118.73658 | 9220 ft | 242 kts | 266° |
| 2026-05-06 03:45 | 42.18875 | 118.70627 | 10214 ft | 246 kts | 270° |
| 2026-05-06 03:45 | 42.18895 | 118.68299 | 10947 ft | 249 kts | 270° |
| 2026-05-06 03:45 | 42.18899 | 118.65948 | 11653 ft | 253 kts | 269° |
| 2026-05-06 03:46 | 42.18882 | 118.64373 | 12129 ft | 254 kts | 269° |
| 2026-05-06 03:46 | 42.18830 | 118.61155 | 13065 ft | 259 kts | 269° |
| 2026-05-06 03:46 | 42.18785 | 118.58719 | 13757 ft | 262 kts | 268° |
| 2026-05-06 03:46 | 42.18755 | 118.57093 | 14207 ft | 264 kts | 268° |
| 2026-05-06 03:47 | 42.18714 | 118.54605 | 14882 ft | 267 kts | 269° |
| 2026-05-06 03:47 | 42.18652 | 118.51236 | 15792 ft | 271 kts | 268° |
| 2026-05-06 03:47 | 42.18599 | 118.48688 | 16424 ft | 274 kts | 268° |
| 2026-05-06 03:47 | 42.18562 | 118.46979 | 16818 ft | 276 kts | 269° |
| 2026-05-06 03:48 | 42.18530 | 118.44377 | 17422 ft | 279 kts | 269° |
| 2026-05-06 03:48 | 42.18502 | 118.41689 | 17671 ft | 296 kts | 269° |
| 2026-05-06 03:48 | 42.18469 | 118.38832 | 17889 ft | 313 kts | 269° |
| 2026-05-06 03:48 | 42.18426 | 118.35849 | 18322 ft | 321 kts | 269° |
| 2026-05-06 03:49 | 42.18386 | 118.32828 | 18922 ft | 324 kts | 269° |
| 2026-05-06 03:49 | 42.18349 | 118.29775 | 19456 ft | 327 kts | 269° |
| 2026-05-06 03:49 | 42.18303 | 118.26698 | 20024 ft | 330 kts | 268° |
| 2026-05-06 03:49 | 42.18221 | 118.23595 | 20579 ft | 332 kts | 267° |
| 2026-05-06 03:50 | 42.18081 | 118.20469 | 21058 ft | 336 kts | 266° |
| 2026-05-06 03:50 | 42.17893 | 118.17316 | 21519 ft | 340 kts | 265° |
| 2026-05-06 03:50 | 42.17705 | 118.14131 | 22016 ft | 342 kts | 265° |
| 2026-05-06 03:50 | 42.17509 | 118.10923 | 22505 ft | 345 kts | 265° |
| 2026-05-06 03:51 | 42.17316 | 118.07685 | 22948 ft | 348 kts | 265° |
| 2026-05-06 03:51 | 42.17124 | 118.04427 | 23433 ft | 350 kts | 265° |
| 2026-05-06 03:51 | 42.16927 | 118.01140 | 23880 ft | 353 kts | 265° |
| 2026-05-06 03:51 | 42.16730 | 117.97832 | 24295 ft | 356 kts | 265° |
| 2026-05-06 03:52 | 42.16531 | 117.94504 | 24736 ft | 358 kts | 265° |
| 2026-05-06 03:52 | 42.16327 | 117.91142 | 25108 ft | 361 kts | 265° |
| 2026-05-06 03:52 | 42.16119 | 117.87743 | 25394 ft | 368 kts | 265° |
| 2026-05-06 03:52 | 42.15904 | 117.84259 | 25516 ft | 379 kts | 265° |
| 2026-05-06 03:53 | 42.15681 | 117.80686 | 25577 ft | 382 kts | 265° |
| 2026-05-06 03:53 | 42.15461 | 117.77144 | 25592 ft | 377 kts | 265° |
| 2026-05-06 03:53 | 42.15246 | 117.73658 | 25630 ft | 369 kts | 264° |
| 2026-05-06 03:53 | 42.15027 | 117.70230 | 25614 ft | 366 kts | 264° |
| 2026-05-06 03:54 | 42.14810 | 117.66827 | 25580 ft | 363 kts | 264° |
| 2026-05-06 03:54 | 42.14599 | 117.63449 | 25545 ft | 361 kts | 264° |
| 2026-05-06 03:54 | 42.14381 | 117.60094 | 25540 ft | 358 kts | 264° |
| 2026-05-06 03:54 | 42.14167 | 117.56761 | 25536 ft | 356 kts | 264° |
| 2026-05-06 03:55 | 42.13955 | 117.53453 | 25510 ft | 353 kts | 264° |
| 2026-05-06 03:55 | 42.13738 | 117.50167 | 25495 ft | 351 kts | 264° |
| 2026-05-06 03:55 | 42.13529 | 117.46905 | 25500 ft | 348 kts | 264° |
| 2026-05-06 03:55 | 42.13321 | 117.43666 | 25502 ft | 346 kts | 264° |
| 2026-05-06 03:56 | 42.13106 | 117.40448 | 25493 ft | 344 kts | 264° |
| 2026-05-06 03:56 | 42.12894 | 117.37229 | 25505 ft | 347 kts | 264° |
| 2026-05-06 03:56 | 42.12678 | 117.33975 | 25511 ft | 352 kts | 264° |
| 2026-05-06 03:56 | 42.12461 | 117.30680 | 25516 ft | 356 kts | 264° |
| 2026-05-06 03:57 | 42.12239 | 117.27331 | 25491 ft | 361 kts | 264° |
| 2026-05-06 03:57 | 42.12004 | 117.23957 | 25501 ft | 364 kts | 264° |
| 2026-05-06 03:57 | 42.11757 | 117.20600 | 25493 ft | 368 kts | 264° |
| 2026-05-06 03:57 | 42.11506 | 117.17164 | 25476 ft | 369 kts | 264° |
| 2026-05-06 03:58 | 42.11264 | 117.13716 | 25481 ft | 370 kts | 264° |
| 2026-05-06 03:58 | 42.11032 | 117.10260 | 25486 ft | 371 kts | 264° |
| 2026-05-06 03:58 | 42.10800 | 117.06791 | 25497 ft | 372 kts | 264° |
| 2026-05-06 03:58 | 42.10565 | 117.03316 | 25500 ft | 374 kts | 264° |
| 2026-05-06 03:59 | 42.10331 | 116.99836 | 25506 ft | 373 kts | 264° |
| 2026-05-06 03:59 | 42.10099 | 116.96369 | 25510 ft | 371 kts | 264° |
| 2026-05-06 03:59 | 42.09866 | 116.92926 | 25497 ft | 369 kts | 264° |
| 2026-05-06 03:59 | 42.09632 | 116.89498 | 25481 ft | 367 kts | 264° |
| 2026-05-06 04:00 | 42.09400 | 116.86089 | 25498 ft | 364 kts | 264° |
| 2026-05-06 04:00 | 42.09168 | 116.82709 | 25491 ft | 361 kts | 264° |
| 2026-05-06 04:00 | 42.08937 | 116.79367 | 25500 ft | 358 kts | 264° |
| 2026-05-06 04:00 | 42.08708 | 116.76042 | 25492 ft | 355 kts | 264° |
| 2026-05-06 04:01 | 42.08477 | 116.72747 | 25373 ft | 353 kts | 266° |
| 2026-05-06 04:01 | 42.08235 | 116.69450 | 25398 ft | 356 kts | 266° |
| 2026-05-06 04:01 | 42.08009 | 116.66112 | 25424 ft | 361 kts | 265° |
| 2026-05-06 04:01 | 42.07775 | 116.62724 | 25450 ft | 366 kts | 265° |
| 2026-05-06 04:02 | 42.07529 | 116.59290 | 25447 ft | 371 kts | 265° |
| 2026-05-06 04:02 | 42.07283 | 116.55815 | 25464 ft | 375 kts | 265° |
| 2026-05-06 04:02 | 42.07031 | 116.52295 | 25467 ft | 380 kts | 265° |
| 2026-05-06 04:02 | 42.06777 | 116.48737 | 25468 ft | 384 kts | 265° |
| 2026-05-06 04:03 | 42.06518 | 116.45138 | 25477 ft | 388 kts | 265° |
| 2026-05-06 04:03 | 42.06258 | 116.41503 | 25477 ft | 392 kts | 265° |
| 2026-05-06 04:03 | 42.05991 | 116.37835 | 25475 ft | 395 kts | 265° |
| 2026-05-06 04:03 | 42.05723 | 116.34159 | 25471 ft | 395 kts | 265° |
| 2026-05-06 04:04 | 42.05454 | 116.30481 | 25468 ft | 395 kts | 265° |
| 2026-05-06 04:04 | 42.05182 | 116.26810 | 25466 ft | 395 kts | 265° |
| 2026-05-06 04:04 | 42.04911 | 116.23134 | 25471 ft | 395 kts | 265° |
| 2026-05-06 04:04 | 42.04639 | 116.19455 | 25465 ft | 395 kts | 265° |
| 2026-05-06 04:05 | 42.04362 | 116.15775 | 25463 ft | 395 kts | 265° |
| 2026-05-06 04:05 | 42.04136 | 116.12094 | 25463 ft | 395 kts | 267° |
| 2026-05-06 04:05 | 42.03950 | 116.08455 | 25461 ft | 395 kts | 267° |
| 2026-05-06 04:05 | 42.03748 | 116.04724 | 25465 ft | 395 kts | 266° |
| 2026-05-06 04:06 | 42.03549 | 116.01091 | 25469 ft | 395 kts | 267° |
| 2026-05-06 04:06 | 42.03348 | 115.97405 | 25471 ft | 395 kts | 266° |
| 2026-05-06 04:06 | 42.03141 | 115.93721 | 25471 ft | 395 kts | 266° |
| 2026-05-06 04:06 | 42.02936 | 115.90035 | 25467 ft | 395 kts | 267° |
| 2026-05-06 04:07 | 42.02731 | 115.86348 | 25469 ft | 395 kts | 266° |
| 2026-05-06 04:07 | 42.02522 | 115.82660 | 25464 ft | 395 kts | 266° |
| 2026-05-06 04:07 | 42.02312 | 115.78971 | 25471 ft | 395 kts | 266° |
| 2026-05-06 04:07 | 42.02105 | 115.75287 | 25468 ft | 395 kts | 266° |
| 2026-05-06 04:08 | 42.01893 | 115.71598 | 25469 ft | 395 kts | 266° |
| 2026-05-06 04:08 | 42.01679 | 115.67913 | 25470 ft | 395 kts | 266° |
| 2026-05-06 04:08 | 42.01468 | 115.64227 | 25585 ft | 395 kts | 265° |
| 2026-05-06 04:08 | 42.01279 | 115.60554 | 25563 ft | 393 kts | 265° |
| 2026-05-06 04:09 | 42.01098 | 115.56898 | 25528 ft | 391 kts | 265° |
| 2026-05-06 04:09 | 42.00907 | 115.53265 | 25511 ft | 388 kts | 265° |
| 2026-05-06 04:09 | 42.00696 | 115.49656 | 25508 ft | 386 kts | 265° |
| 2026-05-06 04:09 | 42.00490 | 115.46079 | 25500 ft | 384 kts | 265° |
| 2026-05-06 04:10 | 42.00278 | 115.42532 | 25501 ft | 379 kts | 265° |
| 2026-05-06 04:10 | 42.00068 | 115.39018 | 25503 ft | 375 kts | 265° |
| 2026-05-06 04:10 | 41.99856 | 115.35547 | 25490 ft | 371 kts | 265° |
| 2026-05-06 04:10 | 41.99649 | 115.32113 | 25492 ft | 367 kts | 265° |
| 2026-05-06 04:11 | 41.99442 | 115.28716 | 25495 ft | 363 kts | 265° |
| 2026-05-06 04:11 | 41.99236 | 115.25348 | 25490 ft | 360 kts | 265° |
| 2026-05-06 04:11 | 41.99030 | 115.22002 | 25500 ft | 357 kts | 265° |
| 2026-05-06 04:11 | 41.98823 | 115.18685 | 25501 ft | 355 kts | 265° |
| 2026-05-06 04:12 | 41.98621 | 115.15402 | 25499 ft | 352 kts | 265° |
| 2026-05-06 04:12 | 41.98417 | 115.12132 | 25503 ft | 350 kts | 265° |
| 2026-05-06 04:12 | 41.98211 | 115.08882 | 25508 ft | 348 kts | 265° |
| 2026-05-06 04:12 | 41.98009 | 115.05653 | 25509 ft | 346 kts | 265° |
| 2026-05-06 04:13 | 41.97805 | 115.02438 | 25509 ft | 344 kts | 265° |
| 2026-05-06 04:13 | 41.97601 | 114.99245 | 25505 ft | 342 kts | 265° |
| 2026-05-06 04:13 | 41.97399 | 114.96064 | 25508 ft | 341 kts | 265° |
| 2026-05-06 04:13 | 41.97193 | 114.92892 | 25508 ft | 341 kts | 265° |
| 2026-05-06 04:14 | 41.96989 | 114.89709 | 25508 ft | 342 kts | 265° |
| 2026-05-06 04:14 | 41.96783 | 114.86515 | 25513 ft | 343 kts | 265° |
| 2026-05-06 04:14 | 41.96574 | 114.83316 | 25511 ft | 344 kts | 265° |
| 2026-05-06 04:14 | 41.96366 | 114.80113 | 25514 ft | 344 kts | 265° |
| 2026-05-06 04:15 | 41.96156 | 114.76906 | 25514 ft | 345 kts | 265° |
| 2026-05-06 04:15 | 41.95945 | 114.73699 | 25525 ft | 345 kts | 265° |
| 2026-05-06 04:15 | 41.95731 | 114.70485 | 25518 ft | 345 kts | 265° |
| 2026-05-06 04:15 | 41.95517 | 114.67270 | 25519 ft | 346 kts | 265° |
| 2026-05-06 04:16 | 41.95302 | 114.64050 | 25516 ft | 346 kts | 265° |
| 2026-05-06 04:16 | 41.95087 | 114.60828 | 25516 ft | 346 kts | 265° |
| 2026-05-06 04:16 | 41.94868 | 114.57604 | 25522 ft | 347 kts | 264° |
| 2026-05-06 04:16 | 41.94653 | 114.54422 | 25524 ft | 347 kts | 265° |
| 2026-05-06 04:17 | 41.94432 | 114.51150 | 25519 ft | 347 kts | 265° |
| 2026-05-06 04:17 | 41.94214 | 114.47960 | 25522 ft | 348 kts | 265° |
| 2026-05-06 04:17 | 41.93994 | 114.44727 | 25524 ft | 348 kts | 265° |
| 2026-05-06 04:17 | 41.93769 | 114.41491 | 25523 ft | 348 kts | 265° |
| 2026-05-06 04:18 | 41.93546 | 114.38256 | 25524 ft | 348 kts | 264° |
| 2026-05-06 04:18 | 41.93322 | 114.35013 | 25523 ft | 349 kts | 265° |
| 2026-05-06 04:18 | 41.93097 | 114.31770 | 25516 ft | 349 kts | 264° |
| 2026-05-06 04:18 | 41.92869 | 114.28524 | 25529 ft | 349 kts | 265° |
| 2026-05-06 04:19 | 41.92643 | 114.25288 | 25525 ft | 349 kts | 265° |
| 2026-05-06 04:19 | 41.92414 | 114.22040 | 25524 ft | 350 kts | 265° |
| 2026-05-06 04:19 | 41.92183 | 114.18791 | 25525 ft | 350 kts | 264° |
| 2026-05-06 04:19 | 41.91953 | 114.15534 | 25529 ft | 350 kts | 264° |
| 2026-05-06 04:20 | 41.91718 | 114.12282 | 25525 ft | 350 kts | 265° |
| 2026-05-06 04:20 | 41.91486 | 114.09022 | 25525 ft | 351 kts | 264° |
| 2026-05-06 04:20 | 41.91253 | 114.05764 | 25528 ft | 351 kts | 264° |
| 2026-05-06 04:20 | 41.91017 | 114.02499 | 25530 ft | 351 kts | 264° |
| 2026-05-06 04:21 | 41.90780 | 113.99239 | 25526 ft | 351 kts | 264° |
| 2026-05-06 04:21 | 41.90544 | 113.95972 | 25532 ft | 352 kts | 264° |
| 2026-05-06 04:21 | 41.90305 | 113.92702 | 25542 ft | 352 kts | 264° |
| 2026-05-06 04:21 | 41.90063 | 113.89434 | 25546 ft | 352 kts | 264° |
| 2026-05-06 04:22 | 41.89822 | 113.86157 | 25533 ft | 353 kts | 264° |
| 2026-05-06 04:22 | 41.89581 | 113.82880 | 25538 ft | 353 kts | 264° |
| 2026-05-06 04:22 | 41.89338 | 113.79602 | 25537 ft | 353 kts | 265° |
| 2026-05-06 04:23 | 41.88845 | 113.73040 | 25534 ft | 354 kts | 264° |
| 2026-05-06 04:23 | 41.88600 | 113.69752 | 25545 ft | 354 kts | 264° |
| 2026-05-06 04:23 | 41.88354 | 113.66467 | 25552 ft | 354 kts | 264° |
| 2026-05-06 04:23 | 41.88104 | 113.63180 | 25555 ft | 354 kts | 264° |
| 2026-05-06 04:24 | 41.87855 | 113.59889 | 25544 ft | 355 kts | 264° |
| 2026-05-06 04:24 | 41.87604 | 113.56596 | 25555 ft | 355 kts | 264° |
| 2026-05-06 04:24 | 41.87351 | 113.53302 | 25555 ft | 355 kts | 264° |
| 2026-05-06 04:24 | 41.87098 | 113.50006 | 25554 ft | 355 kts | 264° |
| 2026-05-06 04:25 | 41.86844 | 113.46709 | 25556 ft | 356 kts | 264° |
| 2026-05-06 04:25 | 41.86588 | 113.43407 | 25556 ft | 356 kts | 264° |
| 2026-05-06 04:25 | 41.86333 | 113.40146 | 25568 ft | 356 kts | 264° |
| 2026-05-06 04:25 | 41.86077 | 113.36843 | 25560 ft | 356 kts | 264° |
| 2026-05-06 04:26 | 41.85818 | 113.33536 | 25563 ft | 357 kts | 264° |
| 2026-05-06 04:26 | 41.85558 | 113.30225 | 25568 ft | 357 kts | 264° |
| 2026-05-06 04:26 | 41.85300 | 113.26956 | 25508 ft | 348 kts | 264° |
| 2026-05-06 04:26 | 41.85047 | 113.23769 | 25092 ft | 339 kts | 264° |
| 2026-05-06 04:27 | 41.84727 | 113.20683 | 24638 ft | 332 kts | 256° |
| 2026-05-06 04:27 | 41.83662 | 113.17961 | 24235 ft | 330 kts | 241° |
| 2026-05-06 04:27 | 41.82401 | 113.15426 | 23837 ft | 324 kts | 241° |
| 2026-05-06 04:27 | 41.81157 | 113.12932 | 23392 ft | 319 kts | 241° |
| 2026-05-06 04:28 | 41.79924 | 113.10478 | 22907 ft | 315 kts | 240° |
| 2026-05-06 04:28 | 41.78466 | 113.08274 | 22426 ft | 320 kts | 227° |
| 2026-05-06 04:28 | 41.76725 | 113.06397 | 21960 ft | 322 kts | 224° |
| 2026-05-06 04:28 | 41.74952 | 113.04568 | 21496 ft | 321 kts | 224° |
| 2026-05-06 04:29 | 41.73197 | 113.02723 | 21046 ft | 320 kts | 225° |
| 2026-05-06 04:29 | 41.71487 | 113.00823 | 20608 ft | 319 kts | 226° |
| 2026-05-06 04:29 | 41.69802 | 112.98890 | 20163 ft | 319 kts | 227° |
| 2026-05-06 04:29 | 41.68110 | 112.96960 | 19729 ft | 319 kts | 226° |
| 2026-05-06 04:30 | 41.66418 | 112.95033 | 19310 ft | 320 kts | 226° |
| 2026-05-06 04:30 | 41.64724 | 112.93110 | 18881 ft | 320 kts | 226° |
| 2026-05-06 04:30 | 41.63030 | 112.91190 | 18470 ft | 320 kts | 226° |
| 2026-05-06 04:30 | 41.61330 | 112.89265 | 18022 ft | 320 kts | 226° |
| 2026-05-06 04:31 | 41.59627 | 112.87336 | 17555 ft | 321 kts | 226° |
| 2026-05-06 04:31 | 41.57922 | 112.85409 | 17102 ft | 321 kts | 226° |
| 2026-05-06 04:31 | 41.56216 | 112.83479 | 16631 ft | 322 kts | 225° |
| 2026-05-06 04:31 | 41.54507 | 112.81550 | 16186 ft | 322 kts | 225° |
| 2026-05-06 04:32 | 41.52802 | 112.79622 | 15740 ft | 322 kts | 225° |
| 2026-05-06 04:32 | 41.51092 | 112.77695 | 15287 ft | 322 kts | 225° |
| 2026-05-06 04:32 | 41.49380 | 112.75765 | 14850 ft | 322 kts | 225° |
| 2026-05-06 04:32 | 41.47665 | 112.73842 | 14421 ft | 322 kts | 225° |
| 2026-05-06 04:33 | 41.45953 | 112.71917 | 14014 ft | 322 kts | 225° |
| 2026-05-06 04:33 | 41.44834 | 112.70638 | 13730 ft | 321 kts | 225° |
| 2026-05-06 04:33 | 41.43142 | 112.68703 | 13264 ft | 320 kts | 225° |
| 2026-05-06 04:33 | 41.41452 | 112.66774 | 12802 ft | 319 kts | 225° |
| 2026-05-06 04:34 | 41.39769 | 112.64853 | 12354 ft | 318 kts | 225° |
| 2026-05-06 04:34 | 41.38100 | 112.62953 | 11989 ft | 313 kts | 225° |
| 2026-05-06 04:34 | 41.36457 | 112.61084 | 11743 ft | 310 kts | 225° |
| 2026-05-06 04:34 | 41.34821 | 112.59224 | 11519 ft | 309 kts | 224° |
| 2026-05-06 04:35 | 41.33280 | 112.57474 | 11304 ft | 306 kts | 225° |
| 2026-05-06 04:36 | 41.32064 | 112.56093 | 11120 ft | 302 kts | 225° |
| 2026-05-06 04:36 | 41.30508 | 112.54326 | 10957 ft | 295 kts | 224° |
| 2026-05-06 04:37 | 41.28973 | 112.52582 | 10873 ft | 286 kts | 225° |
| 2026-05-06 04:37 | 41.27487 | 112.50894 | 10848 ft | 276 kts | 224° |
| 2026-05-06 04:37 | 41.26049 | 112.49270 | 10843 ft | 268 kts | 225° |
| 2026-05-06 04:37 | 41.24647 | 112.47673 | 10852 ft | 264 kts | 225° |
| 2026-05-06 04:38 | 41.23259 | 112.46095 | 10858 ft | 261 kts | 225° |
| 2026-05-06 04:38 | 41.21885 | 112.44531 | 10855 ft | 259 kts | 225° |
| 2026-05-06 04:38 | 41.20524 | 112.42971 | 10748 ft | 259 kts | 226° |
| 2026-05-06 04:38 | 41.19176 | 112.41396 | 10532 ft | 258 kts | 226° |
| 2026-05-06 04:39 | 41.17834 | 112.39818 | 10353 ft | 257 kts | 226° |
| 2026-05-06 04:39 | 41.16493 | 112.38234 | 10081 ft | 261 kts | 226° |
| 2026-05-06 04:39 | 41.15133 | 112.36608 | 9761 ft | 265 kts | 226° |
| 2026-05-06 04:39 | 41.13762 | 112.34964 | 9500 ft | 266 kts | 226° |
| 2026-05-06 04:40 | 41.12384 | 112.33333 | 9263 ft | 264 kts | 225° |
| 2026-05-06 04:40 | 41.11025 | 112.31759 | 9111 ft | 254 kts | 224° |
| 2026-05-06 04:40 | 41.09709 | 112.30253 | 9111 ft | 247 kts | 224° |
| 2026-05-06 04:40 | 41.08417 | 112.28777 | 9037 ft | 243 kts | 224° |
| 2026-05-06 04:41 | 41.06985 | 112.27615 | 8991 ft | 248 kts | 198° |
| 2026-05-06 04:41 | 41.05262 | 112.27478 | 9046 ft | 249 kts | 184° |
| 2026-05-06 04:41 | 41.03543 | 112.27632 | 9039 ft | 249 kts | 174° |
| 2026-05-06 04:41 | 41.01877 | 112.28267 | 9020 ft | 250 kts | 164° |
| 2026-05-06 04:42 | 41.00269 | 112.29104 | 9003 ft | 247 kts | 163° |
| 2026-05-06 04:42 | 40.98666 | 112.29812 | 8976 ft | 238 kts | 180° |
| 2026-05-06 04:42 | 40.97183 | 112.29382 | 8893 ft | 209 kts | 221° |
| 2026-05-06 04:42 | 40.96231 | 112.28089 | 8972 ft | 190 kts | 234° |
| 2026-05-06 04:43 | 40.95432 | 112.26706 | 8893 ft | 189 kts | 238° |
| 2026-05-06 04:43 | 40.94992 | 112.25613 | 8879 ft | 185 kts | 249° |
| 2026-05-06 04:43 | 40.94906 | 112.25335 | 8854 ft | 185 kts | 250° |
| 2026-05-06 04:44 | 40.94522 | 112.23816 | 8690 ft | 174 kts | 255° |
| 2026-05-06 04:44 | 40.94313 | 112.22838 | 8576 ft | 158 kts | 255° |
| 2026-05-06 04:44 | 40.94239 | 112.22479 | 8539 ft | 154 kts | 256° |
| 2026-05-06 04:45 | 40.93934 | 112.21181 | 8296 ft | 145 kts | 253° |
| 2026-05-06 04:45 | 40.93618 | 112.19949 | 8157 ft | 139 kts | 251° |
| 2026-05-06 04:45 | 40.93331 | 112.18786 | 8011 ft | 126 kts | 254° |
| 2026-05-06 04:45 | 40.93072 | 112.17680 | 7995 ft | 127 kts | 252° |
| 2026-05-06 04:46 | 40.92787 | 112.16565 | 8086 ft | 129 kts | 251° |
| 2026-05-06 04:46 | 40.92495 | 112.15424 | 8130 ft | 133 kts | 252° |
| 2026-05-06 04:46 | 40.92197 | 112.14259 | 8123 ft | 134 kts | 253° |
| 2026-05-06 04:46 | 40.91911 | 112.13088 | 8109 ft | 133 kts | 251° |
| 2026-05-06 04:47 | 40.91631 | 112.11915 | 8106 ft | 133 kts | 251° |
| 2026-05-06 04:47 | 40.91350 | 112.10751 | 8081 ft | 133 kts | 252° |
| 2026-05-06 04:47 | 40.91066 | 112.09578 | 7967 ft | 135 kts | 252° |
| 2026-05-06 04:47 | 40.90809 | 112.08419 | 8008 ft | 131 kts | 253° |
| 2026-05-06 04:48 | 40.90563 | 112.07233 | 7893 ft | 139 kts | 256° |
| 2026-05-06 04:48 | 40.90351 | 112.05950 | 7734 ft | 145 kts | 255° |
| 2026-05-06 04:48 | 40.90093 | 112.04632 | 7577 ft | 148 kts | 252° |
| 2026-05-06 04:48 | 40.89778 | 112.03296 | 7285 ft | 157 kts | 252° |
| 2026-05-06 04:49 | 40.89463 | 112.01942 | 7024 ft | 151 kts | 251° |
| 2026-05-06 04:49 | 40.89143 | 112.00605 | 6628 ft | 154 kts | 251° |
| 2026-05-06 04:49 | 40.88846 | 111.99267 | 6319 ft | 149 kts | 250° |
| 2026-05-06 04:49 | 40.88572 | 111.98024 | 5916 ft | 142 kts | 252° |
| 2026-05-06 04:50 | 40.88476 | 111.97563 | 5781 ft | 139 kts | 252° |
| 2026-05-06 04:50 | 40.88207 | 111.96332 | 5409 ft | 143 kts | 253° |
| 2026-05-06 04:50 | 40.87893 | 111.95073 | 5252 ft | 146 kts | 252° |
| 2026-05-06 04:51 | 40.87581 | 111.93769 | 5108 ft | 152 kts | 254° |
| 2026-05-06 04:51 | 40.87265 | 111.92408 | 4871 ft | 155 kts | 256° |
| 2026-05-06 04:51 | 40.86958 | 111.91059 | 4646 ft | 152 kts | 257° |
| 2026-05-06 04:51 | 40.86653 | 111.89716 | 4399 ft | 154 kts | 260° |
| 2026-05-06 04:52 | 40.86353 | 111.88362 | 4163 ft | 152 kts | 258° |
| 2026-05-06 04:52 | 40.86053 | 111.87033 | 4018 ft | 153 kts | 259° |
| 2026-05-06 04:52 | 40.85720 | 111.85647 | 3774 ft | 160 kts | 258° |
| 2026-05-06 04:52 | 40.85392 | 111.84272 | 3544 ft | 150 kts | 258° |
| 2026-05-06 04:53 | 40.85157 | 111.83236 | 3527 ft | 62 kts | 252° |
| 2026-05-06 04:53 | 40.85046 | 111.82743 | 3524 ft | 53 kts | 251° |
| 2026-05-06 04:53 | 40.84934 | 111.82298 | 3522 ft | 40 kts | 251° |
| 2026-05-06 04:53 | 40.84904 | 111.82090 | 3523 ft | 19 kts | 267° |
| 2026-05-06 04:54 | 40.84912 | 111.81970 | 3525 ft | 3 kts | 280° |
| 2026-05-06 04:54 | 40.84913 | 111.81959 | 3525 ft | 0 kts | 280° |
| 2026-05-06 04:55 | 40.84913 | 111.81957 | 3525 ft | 2 kts | 281° |
| 2026-05-06 04:55 | 40.84921 | 111.81912 | 3527 ft | 8 kts | 283° |
| 2026-05-06 04:55 | 40.84940 | 111.81818 | 3529 ft | 11 kts | 296° |
| 2026-05-06 04:56 | 40.84994 | 111.81774 | 3531 ft | 8 kts | 341° |
| 2026-05-06 04:56 | 40.85042 | 111.81754 | 3532 ft | 7 kts | 342° |
| 2026-05-06 04:56 | 40.85048 | 111.81751 | 3532 ft | 0 kts | 342° |
| 2026-05-06 04:58 | 40.85071 | 111.81742 | 3532 ft | 6 kts | 342° |
| 2026-05-06 04:58 | 40.85118 | 111.81722 | 3532 ft | 8 kts | 343° |
| 2026-05-06 04:59 | 40.85169 | 111.81702 | 3532 ft | 8 kts | 343° |
| 2026-05-06 04:59 | 40.85219 | 111.81681 | 3532 ft | 7 kts | 338° |
| 2026-05-06 04:59 | 40.85250 | 111.81641 | 3532 ft | 5 kts | 323° |
| 2026-05-06 04:59 | 40.85283 | 111.81622 | 3532 ft | 5 kts | 342° |
| 2026-05-06 05:00 | 40.85312 | 111.81610 | 3532 ft | 2 kts | 342° |
| 2026-05-06 05:00 | 40.85320 | 111.81606 | 3532 ft | 0 kts | 342° |
| 2026-05-06 05:00 | 40.85322 | 111.81605 | 3532 ft | 0 kts | 342° |
| 2026-05-06 05:00 | 40.85320 | 111.81606 | 3532 ft | 0 kts | 342° |
| 2026-05-06 05:01 | 40.85321 | 111.81606 | 3532 ft | 0 kts | 342° |